Time;durP1;ratioP1;P1;durP2;ratioP2;P2;SDS_P1;SDS_P2;PMS_P1;PMS_P2;Temp;Humidity;BMP_temperature;BMP_pressure;BME280_temperature;BME280_humidity;BME280_pressure;Samples;Min_cycle;Max_cycle;Signal;HPM_P1;HPM_P2
2023/06/07 00:00:00;;;;;;;1999.90;999.90;;;;;;;16.31;100.00;97980.41;5090369;28;20028;-74
2023/06/07 00:02:26;;;;;;;1999.90;999.90;;;;;;;16.30;100.00;97976.00;5090189;28;20032;-73
2023/06/07 00:04:51;;;;;;;1999.90;999.90;;;;;;;16.32;100.00;97965.47;5089211;28;20040;-74
2023/06/07 00:07:18;;;;;;;1999.90;999.90;;;;;;;16.28;100.00;97970.03;5094237;28;20381;-72
2023/06/07 00:09:43;;;;;;;1999.90;999.90;;;;;;;16.20;100.00;97962.56;5094350;28;20118;-74
2023/06/07 00:12:10;;;;;;;1999.90;999.90;;;;;;;16.16;100.00;97939.56;5092929;28;20488;-73
2023/06/07 00:14:36;;;;;;;1999.90;999.90;;;;;;;16.12;100.00;97955.97;5093721;28;20028;-73
2023/06/07 00:17:02;;;;;;;1999.90;999.90;;;;;;;16.11;100.00;97956.28;5092975;28;20084;-72
2023/06/07 00:19:29;;;;;;;1999.90;999.90;;;;;;;16.15;100.00;97954.50;5093945;28;20024;-73
2023/06/07 00:21:55;;;;;;;1999.90;999.90;;;;;;;16.13;100.00;97962.31;5093955;28;20070;-72
2023/06/07 00:24:21;;;;;;;1999.90;999.90;;;;;;;16.12;100.00;97964.25;5093849;28;20024;-72
2023/06/07 00:26:47;;;;;;;1999.90;999.90;;;;;;;16.03;100.00;97958.78;5094215;28;20562;-73
2023/06/07 00:29:14;;;;;;;1999.90;999.90;;;;;;;16.01;100.00;97976.78;5094779;28;20032;-73
2023/06/07 00:31:39;;;;;;;1999.90;999.90;;;;;;;16.04;100.00;97971.41;5093888;28;20032;-73
2023/06/07 00:34:05;;;;;;;1999.90;999.90;;;;;;;16.15;100.00;97971.06;5093746;28;20499;-73
2023/06/07 00:36:30;;;;;;;1999.90;999.90;;;;;;;16.03;100.00;97964.28;5093788;28;20012;-73
2023/06/07 00:38:56;;;;;;;1999.90;999.90;;;;;;;16.00;100.00;97964.97;5092291;28;20028;-73
2023/06/07 00:41:21;;;;;;;1999.90;999.90;;;;;;;15.90;100.00;97953.47;5092166;28;20024;-73
2023/06/07 00:43:47;;;;;;;1999.90;999.90;;;;;;;15.86;100.00;97953.31;5093275;28;20020;-74
2023/06/07 00:46:17;;;;;;;1999.90;999.90;;;;;;;15.83;100.00;97945.69;5082595;28;20162;-73
2023/06/07 00:48:43;;;;;;;1999.90;999.90;;;;;;;15.86;100.00;97961.59;5073025;28;20028;-73
2023/06/07 00:51:08;;;;;;;1999.90;999.90;;;;;;;15.83;100.00;97958.66;5073264;28;20064;-73
2023/06/07 00:53:35;;;;;;;1999.90;999.90;;;;;;;15.77;100.00;97954.47;5073073;28;20464;-73
2023/06/07 00:56:00;;;;;;;1999.90;999.90;;;;;;;15.78;100.00;97956.91;5072607;28;20074;-73
2023/06/07 00:58:26;;;;;;;1999.90;999.90;;;;;;;15.69;100.00;97947.03;5073335;28;20428;-73
2023/06/07 01:00:51;;;;;;;1999.90;999.90;;;;;;;15.65;100.00;97946.06;5073129;28;20086;-73
2023/06/07 01:03:17;;;;;;;1999.90;999.90;;;;;;;15.60;100.00;97947.03;5073127;28;20023;-73
2023/06/07 01:05:44;;;;;;;1999.90;999.90;;;;;;;15.54;100.00;97935.38;5073096;28;20476;-74
2023/06/07 01:08:09;;;;;;;1999.90;999.90;;;;;;;15.52;100.00;97936.84;5054993;28;20106;-73
2023/06/07 01:10:36;;;;;;;1999.90;999.90;;;;;;;15.53;100.00;97938.47;5072883;28;20474;-73
2023/06/07 01:13:02;;;;;;;1999.90;999.90;;;;;;;15.52;100.00;97939.59;5054695;28;20024;-73
2023/06/07 01:15:28;;;;;;;1999.90;999.90;;;;;;;15.52;100.00;97942.38;5072733;28;20111;-74
2023/06/07 01:17:54;;;;;;;1999.90;999.90;;;;;;;15.50;100.00;97934.44;5054743;28;20442;-74
2023/06/07 01:20:24;;;;;;;1999.90;999.90;;;;;;;15.49;100.00;97934.75;5072771;28;20111;-73
2023/06/07 01:22:53;;;;;;;1999.90;999.90;;;;;;;15.52;100.00;97928.59;5072728;28;20060;-73
2023/06/07 01:25:19;;;;;;;1999.90;999.90;;;;;;;15.60;100.00;97935.22;5072676;28;20423;-74
2023/06/07 01:27:46;;;;;;;1999.90;999.90;;;;;;;15.55;100.00;97930.69;5072750;28;20086;-74
2023/06/07 01:30:12;;;;;;;1999.90;999.90;;;;;;;15.62;100.00;97931.00;5065271;28;20090;-73
2023/06/07 01:32:41;;;;;;;1999.90;999.90;;;;;;;15.60;100.00;97933.25;5018099;28;20043;-73
2023/06/07 01:35:08;;;;;;;1999.90;999.90;;;;;;;15.71;100.00;97930.97;5050501;28;20489;-74
2023/06/07 01:37:36;;;;;;;1999.90;999.90;;;;;;;15.66;100.00;97920.94;5033889;28;20021;-74
2023/06/07 01:40:05;;;;;;;1999.90;999.90;;;;;;;15.54;100.00;97907.00;5051231;28;20448;-74
2023/06/07 01:42:33;;;;;;;1999.90;999.90;;;;;;;15.66;100.00;97909.91;5069793;28;20013;-73
2023/06/07 01:44:59;;;;;;;1999.90;999.90;;;;;;;15.65;100.00;97902.75;5066329;28;20071;-74
2023/06/07 01:47:25;;;;;;;1999.90;999.90;;;;;;;15.64;100.00;97903.88;5051657;28;20045;-74
2023/06/07 01:49:50;;;;;;;1999.90;999.90;;;;;;;15.72;100.00;97897.56;5033522;28;20033;-74
2023/06/07 01:52:15;;;;;;;1999.90;999.90;;;;;;;15.67;100.00;97897.72;5051440;28;20095;-74
2023/06/07 01:54:43;;;;;;;1999.90;999.90;;;;;;;15.60;100.00;97897.41;5054289;28;20503;-74
2023/06/07 01:57:14;;;;;;;1999.90;999.90;;;;;;;15.66;100.00;97904.38;5061978;28;20598;-73
2023/06/07 01:59:51;;;;;;;1999.90;999.90;;;;;;;15.58;100.00;97899.69;5072089;28;20025;-73
2023/06/07 02:02:23;;;;;;;1999.90;999.90;;;;;;;15.49;100.00;97907.19;5053338;28;20032;-75
2023/06/07 02:04:56;;;;;;;1999.90;999.90;;;;;;;15.52;100.00;97903.78;5058540;28;20021;-74
2023/06/07 02:07:24;;;;;;;1999.90;999.90;;;;;;;15.53;100.00;97902.63;5037910;28;20466;-74
2023/06/07 02:09:51;;;;;;;1999.90;999.90;;;;;;;15.52;100.00;97898.25;5071480;28;20033;-74
2023/06/07 02:12:18;;;;;;;1999.90;999.90;;;;;;;15.43;100.00;97902.94;5071340;28;20024;-72
2023/06/07 02:14:46;;;;;;;1999.90;999.90;;;;;;;15.37;100.00;97898.75;5071505;28;20493;-73
2023/06/07 02:17:12;;;;;;;1999.90;999.90;;;;;;;15.36;100.00;97902.63;5071477;28;20031;-72
2023/06/07 02:19:37;;;;;;;1999.90;999.90;;;;;;;15.25;100.00;97891.16;5071341;28;20111;-72
2023/06/07 02:22:03;;;;;;;1999.90;999.90;;;;;;;15.20;100.00;97893.25;5071095;28;20104;-72
2023/06/07 02:24:29;;;;;;;1999.90;999.90;;;;;;;15.21;100.00;97903.16;5053388;28;20056;-74
2023/06/07 02:26:55;;;;;;;1999.90;999.90;;;;;;;15.18;100.00;97899.13;5050063;28;20029;-74
2023/06/07 02:29:21;;;;;;;1999.90;999.90;;;;;;;15.20;100.00;97901.53;5052704;28;20025;-74
2023/06/07 02:31:51;;;;;;;1999.90;999.90;;;;;;;15.21;100.00;97900.41;5057088;28;20599;-77
2023/06/07 02:34:17;;;;;;;1999.90;999.90;;;;;;;15.19;100.00;97894.41;5067041;28;20107;-76
2023/06/07 02:36:42;;;;;;;1999.90;999.90;;;;;;;15.09;100.00;97883.72;5059912;28;20063;-74
2023/06/07 02:39:08;;;;;;;1999.90;999.90;;;;;;;15.18;100.00;97881.75;5076951;28;20029;-76
2023/06/07 02:41:34;;;;;;;1999.90;999.90;;;;;;;15.20;100.00;97885.00;5077710;28;20529;-75
2023/06/07 02:44:00;;;;;;;1999.90;999.90;;;;;;;15.25;100.00;97898.63;5075695;28;20053;-74
2023/06/07 02:46:25;;;;;;;1999.90;999.90;;;;;;;15.20;100.00;97891.31;5080735;28;20048;-74
2023/06/07 02:48:51;;;;;;;1999.90;999.90;;;;;;;15.22;100.00;97893.75;5097857;28;20060;-74
2023/06/07 02:51:17;;;;;;;1999.90;999.90;;;;;;;15.21;100.00;97883.88;5096564;28;20019;-74
2023/06/07 02:53:44;;;;;;;1999.90;999.90;;;;;;;15.22;100.00;97891.00;5093154;28;20042;-75
2023/06/07 02:56:10;;;;;;;1999.90;999.90;;;;;;;15.22;100.00;97888.25;5090878;28;20020;-75
2023/06/07 02:58:36;;;;;;;1999.90;999.90;;;;;;;15.23;100.00;97887.91;5091403;28;20039;-75
2023/06/07 03:01:07;;;;;;;1999.90;999.90;;;;;;;15.39;100.00;97899.22;5091144;28;20024;-74
2023/06/07 03:03:32;;;;;;;1999.90;999.90;;;;;;;15.45;100.00;97908.94;5077401;28;20024;-74
2023/06/07 03:05:59;;;;;;;1999.90;999.90;;;;;;;15.33;100.00;97906.84;5070845;28;20062;-74
2023/06/07 03:08:25;;;;;;;1999.90;999.90;;;;;;;15.26;100.00;97900.22;5069337;28;20564;-74
2023/06/07 03:10:50;;;;;;;1999.90;999.90;;;;;;;15.17;100.00;97899.41;5069361;28;20123;-73
2023/06/07 03:13:15;;;;;;;1999.90;999.90;;;;;;;15.12;100.00;97905.13;5070452;28;20039;-73
2023/06/07 03:15:40;;;;;;;1999.90;999.90;;;;;;;15.16;100.00;97906.88;5072193;28;20113;-74
2023/06/07 03:18:07;;;;;;;1999.90;999.90;;;;;;;15.13;100.00;97902.00;5089553;28;20111;-74
2023/06/07 03:20:34;;;;;;;1999.90;999.90;;;;;;;15.20;100.00;97918.88;5090423;28;20473;-74
2023/06/07 03:23:02;;;;;;;1999.90;999.90;;;;;;;15.23;100.00;97914.66;5090733;28;20028;-73
2023/06/07 03:25:27;;;;;;;1999.90;999.90;;;;;;;15.29;100.00;97921.59;5090703;28;20028;-74
2023/06/07 03:27:53;;;;;;;1999.90;999.90;;;;;;;15.22;100.00;97924.06;5090731;28;20522;-74
2023/06/07 03:30:19;;;;;;;1999.90;999.90;;;;;;;15.23;100.00;97931.19;5089273;28;20555;-74
2023/06/07 03:32:45;;;;;;;1999.90;999.90;;;;;;;15.25;100.00;97928.94;5090084;28;20016;-74
2023/06/07 03:35:11;;;;;;;1999.90;999.90;;;;;;;15.26;100.00;97922.25;5089257;28;20039;-74
2023/06/07 03:37:36;;;;;;;1999.90;999.90;;;;;;;15.33;100.00;97933.59;5090243;28;20016;-74
2023/06/07 03:40:01;;;;;;;1999.90;999.90;;;;;;;15.37;100.00;97918.03;5090784;28;20118;-74
2023/06/07 03:42:27;;;;;;;1999.90;999.90;;;;;;;15.35;100.00;97936.84;5093450;28;20020;-74
2023/06/07 03:44:52;;;;;;;1999.90;999.90;;;;;;;15.33;100.00;97944.63;5094715;28;20154;-74
2023/06/07 03:47:17;;;;;;;1999.90;999.90;;;;;;;15.37;100.00;97942.84;5069564;28;20155;-73
2023/06/07 03:49:43;;;;;;;1999.90;999.90;;;;;;;15.42;100.00;97949.00;5054004;28;20023;-74
2023/06/07 03:52:08;;;;;;;1999.90;999.90;;;;;;;15.37;100.00;97945.63;5074776;28;20031;-75
2023/06/07 03:54:33;;;;;;;1999.90;999.90;;;;;;;15.39;100.00;97943.31;5042043;28;20036;-74
2023/06/07 03:56:59;;;;;;;1999.90;999.90;;;;;;;15.25;100.00;97948.22;5053852;28;20032;-74
2023/06/07 03:59:26;;;;;;;1999.90;999.90;;;;;;;15.26;100.00;97941.56;5036380;28;20040;-74
2023/06/07 04:01:51;;;;;;;1999.90;999.90;;;;;;;15.34;100.00;97946.25;5054941;28;20013;-74
2023/06/07 04:04:17;;;;;;;1999.90;999.90;;;;;;;15.32;100.00;97951.28;5041571;28;20059;-75
2023/06/07 04:06:43;;;;;;;1999.90;999.90;;;;;;;15.30;100.00;97940.59;5068347;28;20039;-74
2023/06/07 04:09:08;;;;;;;1999.90;999.90;;;;;;;15.40;100.00;97962.31;5073491;28;20504;-74
2023/06/07 04:11:33;;;;;;;1999.90;999.90;;;;;;;15.41;100.00;97960.38;5073726;28;20028;-74
2023/06/07 04:13:59;;;;;;;1999.90;999.90;;;;;;;15.39;100.00;97966.19;5073674;28;20051;-74
2023/06/07 04:16:24;;;;;;;1999.90;999.90;;;;;;;15.40;100.00;97969.75;5073412;28;20115;-76
2023/06/07 04:18:50;;;;;;;1999.90;999.90;;;;;;;15.32;100.00;97954.84;5073573;28;20067;-74
2023/06/07 04:21:15;;;;;;;1999.90;999.90;;;;;;;15.50;100.00;97958.44;5073480;28;20774;-74
2023/06/07 04:23:41;;;;;;;1999.90;999.90;;;;;;;15.50;100.00;97962.00;5073039;28;20086;-74
2023/06/07 04:26:08;;;;;;;1999.90;999.90;;;;;;;15.48;100.00;97966.22;5073268;28;20021;-74
2023/06/07 04:28:33;;;;;;;1999.90;999.90;;;;;;;15.48;100.00;97971.72;5073127;28;20039;-72
2023/06/07 04:30:59;;;;;;;1999.90;999.90;;;;;;;15.57;100.00;97967.00;5073346;28;20024;-72
2023/06/07 04:33:24;;;;;;;1999.90;999.90;;;;;;;15.74;100.00;97961.47;5068308;28;20024;-72
2023/06/07 04:35:50;;;;;;;1999.90;999.90;;;;;;;15.86;100.00;97967.09;5052949;28;20029;-71
2023/06/07 04:38:23;;;;;;;1999.90;999.90;;;;;;;15.96;100.00;97968.69;5053023;28;20037;-72
2023/06/07 04:40:52;;;;;;;1999.90;999.90;;;;;;;16.13;100.00;97962.31;5035563;28;20037;-72
2023/06/07 04:43:18;;;;;;;1999.90;999.90;;;;;;;16.27;100.00;97971.97;5052694;28;20478;-72
2023/06/07 04:45:54;;;;;;;1999.90;999.90;;;;;;;16.44;100.00;97974.66;5058091;28;20041;-72
2023/06/07 04:48:22;;;;;;;;;;;;;;;16.41;100.00;97974.53;5073450;28;20028;-72
2023/06/07 04:50:49;;;;;;;1999.90;999.90;;;;;;;16.54;100.00;97973.44;5072404;28;20006;-72
2023/06/07 04:53:19;;;;;;;1999.90;999.90;;;;;;;16.79;100.00;97980.03;5072748;28;20024;-73
2023/06/07 04:55:46;;;;;;;1999.90;999.90;;;;;;;16.78;100.00;97981.16;5072389;28;20029;-72
2023/06/07 04:58:11;;;;;;;1999.90;999.90;;;;;;;16.72;100.00;97977.78;5072637;28;20048;-72
2023/06/07 05:00:38;;;;;;;1999.90;999.90;;;;;;;16.86;100.00;97977.50;5055860;28;20568;-73
2023/06/07 05:03:08;;;;;;;1999.90;999.90;;;;;;;17.10;100.00;97972.94;5072416;28;20436;-70
2023/06/07 05:05:37;;;;;;;1999.90;999.90;;;;;;;17.16;100.00;97972.75;5072562;28;20099;-71
2023/06/07 05:08:03;;;;;;;1999.90;999.90;;;;;;;17.24;100.00;97969.09;5072568;28;20489;-71
2023/06/07 05:10:29;;;;;;;1999.90;999.90;;;;;;;17.22;100.00;97982.47;5072450;28;20527;-72
2023/06/07 05:12:54;;;;;;;1999.90;999.90;;;;;;;17.23;100.00;97979.34;5054600;28;20037;-71
2023/06/07 05:15:21;;;;;;;1999.90;999.90;;;;;;;17.20;100.00;97973.69;5072480;28;20029;-72
2023/06/07 05:17:48;;;;;;;1999.90;999.90;;;;;;;17.18;100.00;97965.72;5072248;28;20036;-72
2023/06/07 05:20:15;;;;;;;1999.90;999.90;;;;;;;17.16;100.00;97967.22;5054287;28;20334;-71
2023/06/07 05:22:40;;;;;;;1999.90;999.90;;;;;;;17.25;100.00;97971.53;5071884;28;20075;-72
2023/06/07 05:25:08;;;;;;;1999.90;999.90;;;;;;;17.30;100.00;97971.31;5066150;28;20029;-71
2023/06/07 05:27:38;;;;;;;1999.90;999.90;;;;;;;17.63;100.00;97971.38;5059745;28;20553;-71
2023/06/07 05:30:06;;;;;;;1999.90;999.90;;;;;;;17.88;100.00;97980.56;5042216;28;20644;-71
2023/06/07 05:32:31;;;;;;;1999.90;999.90;;;;;;;18.02;100.00;97979.06;5042643;28;20082;-72
2023/06/07 05:34:57;;;;;;;1999.90;999.90;;;;;;;18.08;100.00;97983.25;5062950;28;20017;-71
2023/06/07 05:37:24;;;;;;;1999.90;999.90;;;;;;;17.91;100.00;97975.16;5054550;28;20021;-71
2023/06/07 05:39:50;;;;;;;1999.90;999.90;;;;;;;18.06;100.00;97980.03;5053190;28;20074;-69
2023/06/07 05:42:15;;;;;;;1999.90;999.90;;;;;;;18.12;100.00;97978.66;5053837;28;20028;-74
2023/06/07 05:44:41;;;;;;;1999.90;999.90;;;;;;;18.24;100.00;97974.25;5071693;28;20051;-75
2023/06/07 05:47:07;;;;;;;1999.90;999.90;;;;;;;18.20;100.00;97974.94;5085786;28;20051;-75
2023/06/07 05:49:32;;;;;;;1999.90;999.90;;;;;;;18.60;100.00;97988.19;5091779;28;20503;-75
2023/06/07 05:51:57;;;;;;;1999.90;999.90;;;;;;;18.74;100.00;97991.38;5089615;28;20120;-76
2023/06/07 05:54:23;;;;;;;1999.90;999.90;;;;;;;19.21;100.00;97995.25;5091017;28;20024;-76
2023/06/07 05:56:49;;;;;;;1999.90;999.90;;;;;;;19.70;100.00;97995.91;5092004;28;20107;-77
2023/06/07 05:59:14;;;;;;;1999.90;999.90;;;;;;;19.75;100.00;97989.28;5091827;28;20038;-75
2023/06/07 06:01:40;;;;;;;1999.90;999.90;;;;;;;19.82;100.00;97983.94;5090646;28;20030;-75
2023/06/07 06:04:05;;;;;;;1999.90;999.90;;;;;;;19.06;100.00;97968.25;5090281;28;20405;-74
2023/06/07 06:06:31;;;;;;;1999.90;999.90;;;;;;;18.87;100.00;97975.53;5091879;28;20024;-75
2023/06/07 06:08:56;;;;;;;1999.90;999.90;;;;;;;18.97;100.00;97989.75;5091857;28;20499;-75
2023/06/07 06:11:22;;;;;;;1999.90;999.90;;;;;;;19.52;100.00;97991.00;5096509;28;20077;-76
2023/06/07 06:13:48;;;;;;;1999.90;999.90;;;;;;;20.07;100.00;97996.53;5094314;28;20389;-75
2023/06/07 06:16:14;;;;;;;1999.90;999.90;;;;;;;21.29;100.00;98004.72;5090366;28;20127;-75
2023/06/07 06:18:41;;;;;;;1999.90;999.90;;;;;;;21.22;100.00;98004.56;5090027;28;20107;-76
2023/06/07 06:21:07;;;;;;;1999.90;999.90;;;;;;;20.27;100.00;97987.16;5091527;28;20020;-74
2023/06/07 06:23:32;;;;;;;1999.90;999.90;;;;;;;20.15;100.00;98003.88;5091131;28;20068;-76
2023/06/07 06:25:59;;;;;;;1999.90;999.90;;;;;;;20.44;100.00;97993.53;5091237;28;20032;-75
2023/06/07 06:28:24;;;;;;;1999.90;999.90;;;;;;;20.78;100.00;97987.22;5091536;28;20023;-74
2023/06/07 06:30:50;;;;;;;1999.90;999.90;;;;;;;20.66;100.00;97987.34;5091909;28;20419;-73
2023/06/07 06:33:16;;;;;;;1999.90;999.90;;;;;;;20.96;100.00;97996.78;5090112;28;20076;-74
2023/06/07 06:35:41;;;;;;;1999.90;999.90;;;;;;;21.16;100.00;97987.34;5089743;28;20036;-74
2023/06/07 06:38:06;;;;;;;1999.90;999.90;;;;;;;21.01;100.00;97985.41;5090665;28;20031;-77
2023/06/07 06:40:32;;;;;;;1999.90;999.90;;;;;;;20.93;100.00;98011.41;5090342;28;20044;-73
2023/06/07 06:42:59;;;;;;;1999.90;999.90;;;;;;;21.19;100.00;98008.88;5090015;28;20129;-72
2023/06/07 06:45:25;;;;;;;1999.90;999.90;;;;;;;20.98;100.00;98002.81;5086945;28;20131;-75
2023/06/07 06:47:51;;;;;;;1999.90;999.90;;;;;;;20.92;100.00;98004.25;5052938;28;20107;-73
2023/06/07 06:50:16;;;;;;;1999.90;999.90;;;;;;;21.46;100.00;98009.06;5070672;28;20035;-73
2023/06/07 06:52:43;;;;;;;1999.90;999.90;;;;;;;21.39;100.00;98004.16;5070854;28;20064;-73
2023/06/07 06:55:08;;;;;;;1999.90;999.90;;;;;;;21.50;100.00;98012.72;5071118;28;21249;-75
2023/06/07 06:57:35;;;;;;;1999.90;999.90;;;;;;;21.77;100.00;98006.16;5052925;28;20021;-75
2023/06/07 07:00:04;;;;;;;1999.90;999.90;;;;;;;20.91;100.00;98001.81;5071075;28;20032;-75
2023/06/07 07:02:31;;;;;;;1999.90;999.90;;;;;;;20.66;100.00;97990.13;5070898;28;20030;-77
2023/06/07 07:04:57;;;;;;;1999.90;999.90;;;;;;;20.79;100.00;97986.06;5052562;28;20029;-76
2023/06/07 07:07:23;;;;;;;1999.90;999.90;;;;;;;20.58;100.00;97999.47;5052553;28;20067;-75
2023/06/07 07:09:49;;;;;;;1999.90;999.90;;;;;;;20.53;100.00;97980.25;5070629;28;20492;-75
2023/06/07 07:12:14;;;;;;;1999.90;999.90;;;;;;;20.48;100.00;97988.88;5052214;28;20032;-76
2023/06/07 07:14:40;;;;;;;1999.90;999.90;;;;;;;20.67;100.00;97969.50;5052267;28;20035;-77
2023/06/07 07:17:05;;;;;;;1999.90;999.90;;;;;;;20.35;100.00;97996.50;5070752;28;20012;-75
2023/06/07 07:19:30;;;;;;;1999.90;999.90;;;;;;;20.67;100.00;97997.28;5070208;28;20448;-75
2023/06/07 07:21:56;;;;;;;1999.90;999.90;;;;;;;20.78;100.00;98006.69;5070560;28;20020;-73
2023/06/07 07:24:21;;;;;;;1999.90;999.90;;;;;;;20.46;100.00;97982.84;5070053;28;20523;-74
2023/06/07 07:26:46;;;;;;;1999.90;999.90;;;;;;;21.04;100.00;97984.66;5070628;28;20031;-75
2023/06/07 07:29:12;;;;;;;1999.90;999.90;;;;;;;21.01;100.00;97995.72;5070558;28;20782;-75
2023/06/07 07:31:37;;;;;;;1999.90;999.90;;;;;;;20.51;100.00;97979.81;5071461;28;20036;-72
2023/06/07 07:34:03;;;;;;;1999.90;999.90;;;;;;;20.74;100.00;97998.25;5052466;28;20029;-75
2023/06/07 07:36:33;;;;;;;1999.90;999.90;;;;;;;20.93;100.00;97991.94;5070713;28;20471;-75
2023/06/07 07:38:59;;;;;;;1999.90;999.90;;;;;;;20.94;100.00;97982.44;5070615;28;20025;-75
2023/06/07 07:41:25;;;;;;;1999.90;999.90;;;;;;;20.70;100.00;97977.13;5070303;28;20019;-76
2023/06/07 07:43:51;;;;;;;1999.90;999.90;;;;;;;21.20;100.00;97987.44;5052257;28;20374;-75
2023/06/07 07:46:16;;;;;;;1999.90;999.90;;;;;;;20.91;100.00;97982.34;5070136;28;20041;-73
2023/06/07 07:48:43;;;;;;;1999.90;999.90;;;;;;;21.94;100.00;97969.50;5070171;28;20079;-74
2023/06/07 07:51:08;;;;;;;1999.90;999.90;;;;;;;22.10;100.00;97992.50;5070558;28;20036;-76
2023/06/07 07:53:34;;;;;;;1999.90;999.90;;;;;;;23.26;100.00;97988.03;5051827;28;20111;-76
2023/06/07 07:56:00;;;;;;;1999.90;999.90;;;;;;;25.31;89.33;97992.16;5070378;28;20067;-75
2023/06/07 07:58:25;;;;;;;1999.90;999.90;;;;;;;26.26;75.33;97998.16;5070249;28;20056;-75
2023/06/07 08:00:52;;;;;;;1999.90;999.90;;;;;;;27.02;70.55;98009.06;5052616;28;20159;-73
2023/06/07 08:03:17;;;;;;;1999.90;999.90;;;;;;;28.63;62.99;98018.13;5070034;28;20036;-74
2023/06/07 08:05:43;;;;;;;1999.90;999.90;;;;;;;26.60;69.51;98010.66;5069970;28;20032;-74
2023/06/07 08:08:08;;;;;;;1999.90;999.90;;;;;;;28.34;63.13;98013.09;5052031;28;20031;-74
2023/06/07 08:10:33;;;;;;;1999.90;999.90;;;;;;;28.48;59.66;97994.09;5070274;28;20060;-73
2023/06/07 08:12:59;;;;;;;1999.90;999.90;;;;;;;28.50;60.33;98019.84;5070900;28;20027;-73
2023/06/07 08:15:24;;;;;;;1999.90;999.90;;;;;;;28.84;59.40;98011.56;5071053;28;20815;-73
2023/06/07 08:17:50;;;;;;;1999.90;999.90;;;;;;;26.30;69.69;98012.22;5072843;28;20025;-82
2023/06/07 08:20:15;;;;;;;1999.90;999.90;;;;;;;25.00;78.02;97985.94;5076298;28;20830;-75
2023/06/07 08:22:42;;;;;;;1999.90;999.90;;;;;;;25.88;71.68;98010.03;5071302;28;20032;-73
2023/06/07 08:25:09;;;;;;;1999.90;999.90;;;;;;;27.20;65.85;98017.47;5070236;28;20035;-74
2023/06/07 08:27:34;;;;;;;1999.90;999.90;;;;;;;28.92;58.82;98012.28;5073307;28;20115;-75
2023/06/07 08:29:59;;;;;;;1999.90;999.90;;;;;;;29.78;54.94;98025.16;5074799;28;20025;-75
2023/06/07 08:32:25;;;;;;;1999.90;999.90;;;;;;;28.36;59.72;98013.47;5073775;28;20047;-74
2023/06/07 08:34:50;;;;;;;1999.90;999.90;;;;;;;29.82;55.28;98023.13;5073684;28;20063;-74
2023/06/07 08:37:15;;;;;;;1999.90;999.90;;;;;;;30.26;53.45;98025.75;5073450;28;20024;-75
2023/06/07 08:39:41;;;;;;;1999.90;999.90;;;;;;;30.18;52.62;98020.63;5073331;28;20098;-74
2023/06/07 08:42:06;;;;;;;1999.90;999.90;;;;;;;28.91;54.65;98021.97;5073350;28;20024;-75
2023/06/07 08:44:32;;;;;;;1999.90;999.90;;;;;;;29.28;55.51;98026.91;5055465;28;20020;-75
2023/06/07 08:46:59;;;;;;;1999.90;999.90;;;;;;;32.47;46.56;98027.09;5073113;28;20090;-75
2023/06/07 08:49:28;;;;;;;1999.90;999.90;;;;;;;28.58;57.20;98021.38;5073240;28;20032;-74
2023/06/07 08:51:57;;;;;;;1999.90;999.90;;;;;;;30.63;51.70;98027.69;5073197;28;20056;-73
2023/06/07 08:54:26;;;;;;;1999.90;999.90;;;;;;;32.07;46.24;98025.56;5073249;28;20029;-73
2023/06/07 08:56:53;;;;;;;1999.90;999.90;;;;;;;30.71;48.80;98023.50;5072868;28;20107;-76
2023/06/07 08:59:20;;;;;;;1999.90;999.90;;;;;;;30.06;50.20;98012.72;5055280;28;20109;-73
2023/06/07 09:01:45;;;;;;;1999.90;999.90;;;;;;;28.11;56.81;98011.63;5055070;28;20025;-73
2023/06/07 09:04:11;;;;;;;1999.90;999.90;;;;;;;29.50;52.76;98011.38;5072887;28;20032;-73
2023/06/07 09:06:37;;;;;;;1999.90;999.90;;;;;;;30.51;50.08;98030.28;5054585;28;20535;-73
2023/06/07 09:09:04;;;;;;;1999.90;999.90;;;;;;;32.18;46.05;98020.44;5054538;28;20367;-73
2023/06/07 09:11:30;;;;;;;1999.90;999.90;;;;;;;30.80;49.58;98023.78;5072849;28;20430;-72
2023/06/07 09:13:56;;;;;;;1999.90;999.90;;;;;;;32.06;45.41;98024.75;5072946;28;20469;-73
2023/06/07 09:16:21;;;;;;;1999.90;999.90;;;;;;;28.81;54.47;98011.59;5054689;28;20028;-73
2023/06/07 09:18:53;;;;;;;1999.90;999.90;;;;;;;32.08;46.64;98010.19;5072970;28;20031;-73
2023/06/07 09:21:27;;;;;;;1999.90;999.90;;;;;;;33.12;43.40;98021.53;5054658;28;20036;-73
2023/06/07 09:23:54;;;;;;;1999.90;999.90;;;;;;;33.99;40.89;98028.13;5073018;28;20084;-75
2023/06/07 09:26:24;;;;;;;1999.90;999.90;;;;;;;33.50;41.51;98027.41;5055119;28;20289;-73
2023/06/07 09:28:50;;;;;;;1999.90;999.90;;;;;;;31.49;45.45;98013.75;5054498;28;20060;-75
2023/06/07 09:31:29;;;;;;;1999.90;999.90;;;;;;;30.19;49.16;98005.31;5054856;28;20032;-72
2023/06/07 09:33:55;;;;;;;1999.90;999.90;;;;;;;30.65;49.83;98002.63;5054572;28;20027;-74
2023/06/07 09:36:21;;;;;;;1999.90;999.90;;;;;;;30.13;48.79;98004.19;5072457;28;20370;-73
2023/06/07 09:38:46;;;;;;;1999.90;999.90;;;;;;;31.53;46.23;97999.53;5053014;28;20031;-73
2023/06/07 09:41:13;;;;;;;1999.90;999.90;;;;;;;30.04;49.45;98004.69;5054280;28;20032;-73
2023/06/07 09:43:54;;;;;;;1999.90;999.90;;;;;;;31.42;45.79;98001.75;5054214;28;20028;-74
2023/06/07 09:46:20;;;;;;;1999.90;999.90;;;;;;;31.01;47.19;97994.41;5072159;28;20045;-73
2023/06/07 09:48:47;;;;;;;1999.90;999.90;;;;;;;29.59;49.89;98000.38;5072304;28;20043;-73
2023/06/07 09:51:13;;;;;;;1999.90;999.90;;;;;;;28.11;54.43;97993.94;5071783;28;20036;-73
2023/06/07 09:54:00;;;;;;;1999.90;999.90;;;;;;;30.84;48.70;97995.47;5054247;28;20029;-74
2023/06/07 09:56:25;;;;;;;1999.90;999.90;;;;;;;31.92;46.81;97995.94;5048458;28;20083;-74
2023/06/07 09:59:12;;;;;;;1999.90;999.90;;;;;;;32.53;43.81;97991.34;5054074;28;20489;-74
2023/06/07 10:01:41;;;;;;;1999.90;999.90;;;;;;;30.99;46.73;97990.38;5053986;28;20520;-74
2023/06/07 10:04:11;;;;;;;1999.90;999.90;;;;;;;31.13;45.69;97984.50;5054440;28;20074;-73
2023/06/07 10:06:41;;;;;;;1999.90;999.90;;;;;;;32.33;43.77;97988.53;5054488;28;20056;-74
2023/06/07 10:09:07;;;;;;;1999.90;999.90;;;;;;;28.75;50.72;97968.19;5054337;28;20024;-74
2023/06/07 10:11:34;;;;;;;1999.90;999.90;;;;;;;31.30;46.32;97989.00;5054245;28;20028;-74
2023/06/07 10:14:23;;;;;;;1999.90;999.90;;;;;;;30.41;48.11;97984.03;5071811;28;20055;-74
2023/06/07 10:16:54;;;;;;;1999.90;999.90;;;;;;;29.68;49.82;97969.66;5071830;28;20051;-74
2023/06/07 10:19:26;;;;;;;1999.90;999.90;;;;;;;28.98;50.65;97960.72;5072554;28;20507;-73
2023/06/07 10:21:55;;;;;;;1999.90;999.90;;;;;;;30.20;45.69;97971.00;5054313;28;20033;-73
2023/06/07 10:24:24;;;;;;;1999.90;999.90;;;;;;;29.38;48.89;97969.63;5054205;28;20016;-73
2023/06/07 10:26:54;;;;;;;1999.90;999.90;;;;;;;29.37;50.11;97965.19;5054587;28;20118;-78
2023/06/07 10:29:31;;;;;;;1999.90;999.90;;;;;;;27.03;55.08;97951.72;5058091;28;20033;-79
2023/06/07 10:32:08;;;;;;;1999.90;999.90;;;;;;;27.63;55.49;97948.72;5054835;28;20087;-73
2023/06/07 10:34:36;;;;;;;1999.90;999.90;;;;;;;27.50;58.44;97939.94;5053600;28;20101;-73
2023/06/07 10:37:02;;;;;;;1999.90;999.90;;;;;;;25.88;60.07;97929.53;5071258;28;20021;-73
2023/06/07 10:39:28;;;;;;;1999.90;999.90;;;;;;;26.09;61.12;97940.78;5053312;28;20495;-74
2023/06/07 10:41:54;;;;;;;1999.90;999.90;;;;;;;26.58;59.96;97917.63;5070890;28;20044;-74
2023/06/07 10:44:19;;;;;;;1999.90;999.90;;;;;;;26.79;57.26;97924.41;5053090;28;20032;-73
2023/06/07 10:46:44;;;;;;;1999.90;999.90;;;;;;;26.40;62.14;97932.88;5070574;28;20061;-72